Flight Track Log - Related Links

Times and Time Zones

All times are in EDT time to prevent confusion due to time zone crossing. See the N175HQ flight status page for this flight to view local times or setup timezone preferences in your user account.

Time Position Orientation Groundspeed Altitude Reporting Facility
EDT Latitude Longitude Course Direction KTS MPH feet Rate Location/Type
Wed 06:23:09 PM 43.1733 -89.3147 127° Southeast 152 175 3,400  Level Chicago Center
Wed 06:24:11 PM 43.1369 -89.2494 127° Southeast 218 251 5,300 2,780 Climbing Chicago Center
Wed 06:25:12 PM 43.0850 -89.1725 133° Southeast 261 300 9,100 2,829 Climbing Chicago Center
Wed 06:26:14 PM 43.0239 -89.0856 134° Southeast 318 366 11,100 2,661 Climbing Chicago Center
Wed 06:27:16 PM 42.9419 -88.9675 133° Southeast 364 419 14,600 3,145 Climbing Chicago Center
Wed 06:28:18 PM 42.8697 -88.8647 134° Southeast 376 433 17,600 2,634 Climbing Chicago Center
Wed 06:29:19 PM 42.7933 -88.7561 134° Southeast 393 452 20,000 2,293 Climbing Chicago Center
Wed 06:30:21 PM 42.7156 -88.6467 134° Southeast 402 463 22,300 2,032 Climbing Chicago Center
Wed 06:31:23 PM 42.6344 -88.5300 133° Southeast 423 487 24,200 1,902 Climbing Chicago Center
Wed 06:32:24 PM 42.5500 -88.4097 134° Southeast 438 504 26,200 1,951 Climbing Chicago Center
Wed 06:33:26 PM 42.4497 -88.2692 134° Southeast 445 512 28,200 1,645 Climbing Chicago Center
Wed 06:34:28 PM 42.3614 -88.1472 134° Southeast 451 519 29,600 1,707 Climbing Chicago Center
Wed 06:35:29 PM 42.2994 -87.9861 117° Southeast 476 548 31,700 1,659 Climbing Chicago Center
Wed 06:36:31 PM 42.2753 -87.8083 100° East 479 551 33,000 629 Climbing Chicago Center
Wed 06:37:33 PM 42.2500 -87.6294 101° East 484 557 33,000 1,000 Level Chicago Center
Wed 06:39:37 PM 42.2014 -87.2764 100° East 478 550 36,100 1,297 Climbing Chicago Center
Wed 06:40:38 PM 42.1775 -87.1075 101° East 465 535 37,000 439 Climbing Chicago Center
Wed 06:41:40 PM 42.1511 -86.9308 101° East 477 549 37,000  Level Chicago Center
Wed 06:42:42 PM 42.1211 -86.7208 101° East 478 550 37,000  Level Chicago Center
Wed 06:43:43 PM 42.0992 -86.5633 101° East 475 547 37,000  Level Chicago Center
Wed 06:44:45 PM 42.0736 -86.3936 101° East 466 536 37,000  Level Chicago Center
Wed 06:45:47 PM 42.0483 -86.2225 101° East 467 537 37,000  Level Chicago Center
Wed 06:46:48 PM 42.0161 -86.0150 102° East 473 544 37,000  Level Chicago Center
Wed 06:47:50 PM 41.9897 -85.8433 102° East 469 540 37,000 581 Level Chicago Center
Wed 06:48:52 PM 41.9622 -85.6692 102° East 474 545 38,200 927 Climbing Chicago Center
Wed 06:49:53 PM 41.9361 -85.4975 102° East 468 539 38,900 390 Climbing Chicago Center
Wed 06:50:55 PM 41.9092 -85.3219 102° East 473 544 39,000 44 Climbing Chicago Center
Wed 06:52:09 PM 41.8789 -85.1128 101° East 467 537 39,000  Level Cleveland Center
Wed 06:53:09 PM 41.8464 -84.9264 103° East 467 537 39,000  Level Cleveland Center
Wed 06:54:09 PM 41.8172 -84.7544 103° East 472 543 39,000  Level Cleveland Center
Wed 06:55:09 PM 41.7919 -84.5911 102° East 466 536 39,000  Level Cleveland Center
Wed 06:56:09 PM 41.7622 -84.4250 103° East 453 521 39,000  Level Cleveland Center
Wed 06:57:09 PM 41.7322 -84.2592 104° East 453 521 39,000  Level Cleveland Center
Wed 06:58:09 PM 41.7039 -84.0961 103° East 453 521 39,000  Level Cleveland Center
Wed 06:59:09 PM 41.6753 -83.9361 103° East 453 521 39,000  Level Cleveland Center
Wed 07:00:09 PM 41.6467 -83.7678 103° East 453 521 39,000  Level Cleveland Center
Wed 07:01:09 PM 41.6197 -83.6081 103° East 453 521 39,000  Level Cleveland Center
Wed 07:02:09 PM 41.5906 -83.4428 103° East 453 521 39,000  Level Cleveland Center
Wed 07:03:09 PM 41.5614 -83.2806 103° East 453 521 39,000  Level Cleveland Center
Wed 07:04:09 PM 41.5356 -83.1297 103° East 453 521 39,000  Level Cleveland Center
Wed 07:05:09 PM 41.5036 -82.9622 104° East 453 521 39,000  Level Cleveland Center
Wed 07:06:09 PM 41.4739 -82.7919 103° East 459 528 39,000  Level Cleveland Center
Wed 07:07:09 PM 41.4397 -82.6078 104° East 464 534 39,000  Level Cleveland Center
Wed 07:08:09 PM 41.4092 -82.4408 104° East 464 534 39,000  Level Cleveland Center
Wed 07:09:09 PM 41.3764 -82.2683 104° East 470 541 39,000  Level Cleveland Center
Wed 07:10:09 PM 41.3447 -82.1431 109° East 462 532 39,000  Level Cleveland Center
Wed 07:11:09 PM 41.3033 -81.9597 107° East 462 532 39,000  Level Cleveland Center
Wed 07:12:09 PM 41.2675 -81.8014 107° East 462 532 39,000  Level Cleveland Center
Wed 07:13:09 PM 41.2233 -81.6350 109° East 462 532 39,000  Level Cleveland Center
Wed 07:14:09 PM 41.1811 -81.4658 108° East 475 547 39,000  Level Cleveland Center
Wed 07:15:09 PM 41.1303 -81.2750 109° East 491 565 39,000  Level Cleveland Center
Wed 07:16:09 PM 41.0853 -81.1092 110° East 491 565 39,000  Level Cleveland Center
Wed 07:17:09 PM 41.0003 -81.0039 137° Southeast 463 533 39,000  Level Cleveland Center
Wed 07:18:09 PM 40.8794 -80.9619 165° South 435 501 39,000  Level Cleveland Center
Wed 07:19:09 PM 40.7567 -80.9422 173° South 426 490 39,000  Level Cleveland Center
Wed 07:20:09 PM 40.6336 -80.9197 172° South 440 506 39,000  Level Cleveland Center
Wed 07:21:09 PM 40.5086 -80.9000 173° South 452 520 39,000  Level Cleveland Center
Wed 07:22:09 PM 40.3817 -80.8775 172° South 452 520 39,000  Level Cleveland Center
Wed 07:23:09 PM 40.2522 -80.8525 172° South 467 537 39,000  Level Cleveland Center
Wed 07:24:09 PM 40.1419 -80.7650 149° Southeast 457 526 39,000  Level Cleveland Center
Wed 07:25:09 PM 40.0339 -80.6347 137° Southeast 478 550 39,000 -350 Level Cleveland Center
Wed 07:26:09 PM 39.9317 -80.5261 141° Southeast 478 550 38,300 -800 Descending Cleveland Center
Wed 07:27:09 PM 39.8336 -80.4128 138° Southeast 473 544 37,400 -1,000 Descending Cleveland Center
Wed 07:28:09 PM 39.7333 -80.3050 140° Southeast 479 551 36,300 -1,099 Descending Cleveland Center
Wed 07:29:31 PM 39.6061 -80.1653 140° Southeast 488 562 34,800 -1,141 Descending Washington Center
Wed 07:30:31 PM 39.5081 -80.0569 140° Southeast 478 550 33,600 -1,200 Descending Washington Center
Wed 07:31:31 PM 39.4119 -79.9489 139° Southeast 473 544 32,400 -1,250 Descending Washington Center
Wed 07:32:31 PM 39.3181 -79.8358 137° Southeast 473 544 31,100 -700 Descending Washington Center
Wed 07:33:31 PM 39.2847 -79.6514 103° East 448 516 31,000 -50 Descending Washington Center
Wed 07:34:31 PM 39.2714 -79.4844 96° East 448 516 31,000 -900 Level Washington Center
Wed 07:35:31 PM 39.2583 -79.3122 96° East 458 527 29,200 -1,800 Descending Washington Center
Wed 07:36:31 PM 39.2375 -79.1692 101° East 463 533 27,400 -1,450 Descending Washington Center
Wed 07:37:31 PM 39.2256 -79.0106 96° East 457 526 26,300 -1,500 Descending Washington Center
Wed 07:38:31 PM 39.2111 -78.8544 97° East 450 518 24,400 -2,150 Descending Washington Center
Wed 07:39:31 PM 39.1964 -78.7011 97° East 445 512 22,000 -2,300 Descending Washington Center
Wed 07:40:31 PM 39.1811 -78.5558 98° East 430 495 19,800 -2,200 Descending Washington Center
Wed 07:41:31 PM 39.1661 -78.4081 97° East 417 480 17,600 -1,800 Descending Washington Center
Wed 07:42:31 PM 39.1381 -78.2678 104° East 409 471 16,200 -1,250 Descending Washington Center
Wed 07:43:31 PM 39.1033 -78.1300 108° East 404 465 15,100 -1,150 Descending Washington Center
Wed 07:44:31 PM 39.0708 -77.9978 108° East 393 452 13,900 -1,250 Descending Washington Center
Wed 07:45:31 PM 39.0339 -77.8522 108° East 388 447 12,600 -1,450 Descending Washington Center
Wed 07:46:31 PM 39.0008 -77.7258 109° East 388 447 11,000 -1,000 Descending Washington Center
Wed 07:47:31 PM 38.9714 -77.6100 108° East 355 409 10,600 -769 Descending Washington Center
Wed 07:47:49 PM 38.9667 -77.5833 103° East 329 379 10,000 -1,786 Descending Potomac TRACON
Wed 07:48:55 PM 38.9167 -77.4667 119° Southeast 311 358 8,100 -1,095 Descending Potomac TRACON
Wed 07:49:55 PM 38.8833 -77.3833 117° Southeast 243 280 7,700 -550 Descending Potomac TRACON
Wed 07:50:55 PM 38.8667 -77.3000 104° East 232 267 7,000 -350 Descending Potomac TRACON
Wed 07:51:55 PM 38.9000 -77.2667 38° Northeast 235 270 7,000 -150 Level Potomac TRACON
Wed 07:52:55 PM 38.9500 -77.3000 333° Northwest 203 234 6,700 -500 Descending Potomac TRACON
Wed 07:53:55 PM 38.9833 -77.3500 311° West 209 241 6,000 -579 Descending Potomac TRACON
Wed 07:54:49 PM 39.0333 -77.3500 360° North 229 264 5,600 -650 Descending Potomac TRACON
Wed 07:55:55 PM 39.0667 -77.2833 57° Northeast 212 244 4,700 -900 Descending Potomac TRACON
Wed 07:56:49 PM 39.0333 -77.2333 131° Southeast 175 201 3,800 -737 Descending Potomac TRACON
Wed 07:57:49 PM 39.0000 -77.1833 131° Southeast 175 201 3,300 -600 Descending Potomac TRACON
Wed 07:58:49 PM 38.9667 -77.1500 142° Southeast 168 193 2,600 -800 Descending Potomac TRACON
Wed 07:59:49 PM 38.9333 -77.1167 142° Southeast 160 184 1,700 -842 Descending Potomac TRACON
Wed 08:00:43 PM 38.9000 -77.0833 142° Southeast 155 178 1,000 -600 Descending Potomac TRACON
Wed 08:01:49 PM 38.8833 -77.0500 123° Southeast 129 148 500 -455 Descending Potomac TRACON

Login

Don't have an account? Register now (free) for customized features, flight alerts, and more!